Portsoy, United Kingdom
Current Conditions -  °F | °C
As of 4:50 AM on Wednesday 26 Nov 2014 (Local Time) from EGQS Reporting Station
Clear Clear  
Wind Chill:   Ceiling: Unl
Heat Index:   Visibility: 6mi
Dew Point:   Wind: 6mph
Humidity: 93%   Direction: 130°SE
Pressure: 30.03"   Gusts: NA
Location:  57.68°N, 2.69°W
Report Text: EGQS 260450Z 13005KT CAVOK 03/02 Q1017 BLU NOSIG
Loading
Personal Weather Stations






























Interactive Weather Map New forecast layout! Learn more

10-Day Weather Forecast

Advertisements
Track Severe Weather on mobile